Overview Statistics Trail Chart Weather Telemetry Raw packets
 

This is the latest recevied weather packets stored in our database for station/object HA2SKA-1. If no packets are shown the sender has not sent any weather packets the latest 10 day(s).

<< 29 30 31 32 33 34 35 >>
Time Temp. Humidity Pressure Rain* Wind** Luminosity Snow
1787965506 26.67° C 96% 1014 hPa - - - -
1787964606 26.67° C 98% 1013.8 hPa - - - -
1787963706 28.33° C 86% 1013.2 hPa - - - -
1787962806 28.89° C 79% 1013.1 hPa - - - -
1787961905 30° C 73% 1013.2 hPa - - - -
1787961005 29.44° C 75% 1013.2 hPa - - - -
1787960105 28.33° C 81% 1014 hPa - - - -
1787959205 28.33° C 79% 1014.3 hPa - - - -
1787958305 29.44° C 74% 1013.9 hPa - - - -
1787957405 28.33° C 79% 1013.9 hPa - - - -
1787956505 30.56° C 69% 1013.8 hPa - - - -
1787955605 30° C 70% 1013.7 hPa - - - -
1787954705 31.11° C 65% 1013.7 hPa - - - -
1787953805 30.56° C 68% 1013.6 hPa - - - -
1787952905 30° C 69% 1013.4 hPa - - - -
1787952004 30.56° C 66% 1013.6 hPa - - - -
1787951104 30.56° C 66% 1013.9 hPa - - - -
1787950204 30.56° C 66% 1013.8 hPa - - - -
1787949304 31.11° C 62% 1013.5 hPa - - - -
1787948404 32.22° C 59% 1013.6 hPa - - - -
1787947504 32.22° C 59% 1013.5 hPa - - - -
1787946604 32.22° C 59% 1013.6 hPa - - - -
1787945704 32.22° C 59% 1013.7 hPa - - - -
1787944804 32.22° C 58% 1013.8 hPa - - - -
1787943904 31.67° C 60% 1013.8 hPa - - - -

* Rain since midnight (hover to see other rain measurements)
** Current wind speed in m/s (hover to see current wind gust speed)